Latest Weather Observations for Cressy

IDT60801

Issued at 11:31 pm EST Tuesday 24 May 2016 (issued every 30 minutes, with the page automatically refreshed every 10 minutes)

About weather observations | Map of weather stations | Latest weather observations for TAS | Other Formats
Station Details ID: 091306 Name: CRESSY RESEARCH STATION Lat: -41.73 Lon: 147.08 Height: 148.0 m
Data from the previous 72 hours. | See also: Recent months at Cressy
Date/Time
EST
Temp
°C
App
Temp
°C
Dew
Point
Rel
Hum
%
Delta-T
°C
Wind Press
QNH
hPa
Press
MSL
hPa
Rain
since 9 am
mm
Dir
 
Spd
km/h
Gust
km/h
Spd
kts
Gust
kts
24/11:30pm 0.0 -2.5 -1.2 92 0.4 WSW 2 7 1 4 - - 0.0
24/11:00pm 1.4 -0.6 0.2 92 0.4 CALM 0 0 0 0 - - 0.0
24/10:30pm 1.3 -1.8 0.0 91 0.5 E 6 9 3 5 - - 0.0
24/10:00pm 1.7 -0.3 -0.2 87 0.7 CALM 0 4 0 2 - - 0.0
24/09:30pm 2.2 -1.1 0.3 87 0.7 NE 7 7 4 4 - - 0.0
24/09:00pm 3.4 1.2 1.0 84 0.9 WNW 2 13 1 7 - - 0.0
24/08:30pm 4.1 1.1 1.1 81 1.2 W 6 7 3 4 - - 0.0
24/08:00pm 4.2 1.2 1.1 80 1.2 WSW 6 15 3 8 - - 0.0
24/07:30pm 5.0 1.9 1.1 76 1.5 NE 7 11 4 6 - - 0.0
24/07:00pm 6.6 3.5 1.1 68 2.2 SSW 7 9 4 5 - - 0.0
24/06:30pm 7.3 4.2 1.6 67 2.3 S 7 11 4 6 - - 0.0
24/06:00pm 7.6 4.8 1.9 67 2.4 NNW 6 9 3 5 - - 0.0
24/05:30pm 6.6 3.7 1.7 71 2.0 E 6 13 3 7 - - 0.0
24/05:00pm 8.3 4.9 2.1 65 2.6 SSW 9 13 5 7 - - 0.0
24/04:30pm 9.6 5.5 2.5 61 3.0 SSW 13 17 7 9 - - 0.0
24/04:00pm 10.9 5.6 1.7 53 3.9 SSW 19 26 10 14 - - 0.0
24/03:30pm 11.3 5.8 1.8 52 4.1 S 20 32 11 17 - - 0.0
24/03:00pm 11.4 4.3 1.6 51 4.2 S 28 41 15 22 - - 0.0
24/02:30pm 11.4 4.1 2.7 55 3.8 S 30 39 16 21 - - 0.0
24/02:00pm 11.0 4.2 3.3 59 3.4 S 28 43 15 23 - - 0.0
24/01:30pm 11.6 6.1 4.1 60 3.4 S 22 32 12 17 - - 0.0
24/01:00pm 11.6 6.0 3.6 58 3.6 S 22 35 12 19 - - 0.0
24/12:30pm 11.7 6.7 3.5 57 3.7 S 19 32 10 17 - - 0.0
24/12:00pm 11.6 5.8 4.3 61 3.3 SSW 24 33 13 18 - - 0.0
24/11:30am 11.3 5.4 3.8 60 3.4 SSW 24 35 13 19 - - 0.0
24/11:00am 10.9 5.8 3.9 62 3.1 S 20 28 11 15 - - 0.0
24/10:30am 10.7 5.6 4.0 63 3.0 S 20 30 11 16 - - 0.0
24/10:00am 8.1 5.6 3.9 75 1.8 NE 6 17 3 9 - - 0.0
24/09:30am 5.8 3.9 2.8 81 1.2 NW 2 7 1 4 - - 0.0
24/09:00am 6.0 2.8 3.0 81 1.3 NNW 9 13 5 7 - - 0.2
24/08:30am 5.7 2.9 3.0 83 1.1 NNW 7 11 4 6 - - 0.2
24/08:00am 4.0 0.6 2.0 87 0.8 WSW 9 15 5 8 - - 0.2
24/07:30am 3.6 -0.2 1.8 88 0.7 NNE 11 17 6 9 - - 0.2
24/07:00am 3.2 0.1 1.4 88 0.7 NW 7 13 4 7 - - 0.2
24/06:30am 3.0 -0.1 1.2 88 0.7 N 7 13 4 7 - - 0.2
24/06:00am 4.0 1.2 1.9 86 0.8 NW 6 13 3 7 - - 0.2
24/05:30am 4.3 1.0 2.2 86 0.8 WNW 9 15 5 8 - - 0.2
24/05:00am 5.0 2.2 2.0 81 1.2 N 6 13 3 7 - - 0.2
24/04:30am 4.3 1.0 2.2 86 0.8 E 9 13 5 7 - - 0.2
24/04:00am 4.4 1.4 1.9 84 1.0 ENE 7 11 4 6 - - 0.2
24/03:30am 4.5 1.1 2.0 84 1.0 E 9 13 5 7 - - 0.2
24/03:00am 4.9 1.5 2.1 82 1.1 ESE 9 13 5 7 - - 0.2
24/02:30am 5.1 1.7 2.1 81 1.2 ESE 9 15 5 8 - - 0.2
24/02:00am 4.7 1.3 1.6 80 1.2 NE 9 13 5 7 - - 0.2
24/01:30am 5.9 1.3 1.4 73 1.8 ENE 15 20 8 11 - - 0.2
24/01:00am 5.5 1.6 1.4 75 1.6 NNW 11 19 6 10 - - 0.2
24/12:30am 7.1 4.0 1.2 66 2.4 NNW 7 11 4 6 - - 0.2
24/12:00am 8.1 3.8 1.0 61 2.9 NNW 13 20 7 11 - - 0.2
 
Date/Time
EST
Temp
°C
App
Temp
°C
Dew
Point
Rel
Hum
%
Delta-T
°C
Wind Press
QNH
hPa
Press
MSL
hPa
Rain
since 9 am
mm
Dir
 
Spd
km/h
Gust
km/h
Spd
kts
Gust
kts
23/11:30pm 8.6 4.2 0.3 56 3.3 SSE 13 35 7 19 - - 0.2
23/11:00pm 9.4 3.3 0.6 54 3.6 WSW 22 39 12 21 - - 0.2
23/10:30pm 9.4 3.4 0.8 55 3.5 WSW 22 35 12 19 - - 0.2
23/10:00pm 8.6 4.2 0.1 55 3.4 SW 13 20 7 11 - - 0.2
23/09:30pm 9.1 3.6 0.8 56 3.4 WSW 19 28 10 15 - - 0.2
23/09:00pm 9.8 3.2 -0.1 50 4.0 WSW 24 43 13 23 - - 0.2
23/08:30pm 9.5 4.3 0.1 52 3.8 WSW 17 24 9 13 - - 0.2
23/08:00pm 9.2 4.4 0.4 54 3.6 WSW 15 22 8 12 - - 0.2
23/07:30pm 9.2 4.8 0.4 54 3.6 WSW 13 19 7 10 - - 0.2
23/07:14pm 10.3 4.4 -0.8 46 4.4 SSW 20 43 11 23 - - 0.2
23/07:00pm 9.5 4.8 1.2 56 3.4 WSW 15 22 8 12 - - 0.2
23/06:30pm 9.2 5.8 1.6 59 3.2 WNW 9 13 5 7 - - 0.2
23/06:00pm 9.5 5.0 1.9 59 3.2 WSW 15 24 8 13 - - 0.2
23/05:36pm 10.2 3.1 1.3 54 3.7 W 28 46 15 25 - - 0.2
23/05:30pm 10.2 4.2 1.3 54 3.7 W 22 35 12 19 - - 0.2
23/05:00pm 10.9 3.7 0.6 49 4.3 WSW 28 44 15 24 - - 0.2
23/04:52pm 10.9 3.7 0.6 49 4.3 WSW 28 48 15 26 - - 0.2
23/04:30pm 10.7 4.3 1.0 51 4.1 W 24 44 13 24 - - 0.2
23/04:01pm 10.5 3.2 2.6 58 3.4 W 30 48 16 26 - - 0.2
23/04:00pm 10.5 3.6 2.4 57 3.5 W 28 46 15 25 - - 0.2
23/03:30pm 10.6 5.2 2.7 58 3.4 W 20 26 11 14 - - 0.2
23/03:00pm 10.8 4.7 2.9 58 3.4 W 24 33 13 18 - - 0.2
23/02:30pm 11.6 - - - - W 24 33 13 18 - - 0.2
23/02:00pm 12.1 - - - - W 32 43 17 23 - - 0.2
23/01:50pm 12.2 - - - - W 28 52 15 28 - - 0.2
23/01:30pm 11.9 - - - - W 24 33 13 18 - - 0.2
23/01:00pm 12.3 - - - - W 15 22 8 12 - - 0.2
23/12:30pm 12.4 - - - - WSW 13 24 7 13 - - 0.2
23/12:00pm 12.3 8.7 8.4 77 1.9 WNW 17 20 9 11 - - 0.2
23/11:30am 11.8 - - - - NW 20 26 11 14 - - 0.2
23/11:00am 11.3 - - - - NW 24 33 13 18 - - 0.2
23/10:30am 11.0 - - - - NW 26 33 14 18 - - 0.2
23/10:00am 11.4 - - - - NW 24 33 13 18 - - 0.2
23/09:30am 10.9 - - - - NNW 22 30 12 16 - - 0.2
23/09:00am 10.3 8.6 9.7 96 0.3 N 9 13 5 7 - - 7.6
23/08:30am 10.1 - - - - NNW 19 24 10 13 - - 7.4
23/08:00am 10.1 - - - - NW 15 20 8 11 - - 7.2
23/07:30am 10.2 - - - - NW 15 20 8 11 - - 7.2
23/07:00am 10.4 - - - - N 22 30 12 16 - - 7.2
23/06:30am 10.8 - - - - N 17 24 9 13 - - 7.2
23/06:00am 10.8 7.8 9.2 90 0.8 N 15 22 8 12 - - 7.2
23/05:30am 11.2 - - - - NNE 13 15 7 8 - - 7.0
23/05:00am 11.6 - - - - WSW 19 28 10 15 - - 6.4
23/04:35am 12.5 - - - - N 28 50 15 27 - - 5.4
23/04:30am 13.2 - - - - N 15 20 8 11 - - 5.2
23/04:00am 12.7 - - - - N 9 13 5 7 - - 2.0
23/03:30am 10.8 - - - - ESE 6 7 3 4 - - 1.8
23/03:00am 10.8 10.9 10.0 95 0.4 CALM 0 0 0 0 - - 1.4
23/02:30am 11.5 - - - - NNW 6 6 3 3 - - 1.2
23/02:00am 11.8 - - - - N 7 11 4 6 - - 1.0
23/01:30am 10.5 - - - - NNE 7 11 4 6 - - 0.2
23/01:00am 9.3 - - - - NNE 9 11 5 6 - - 0.0
23/12:30am 8.8 - - - - NW 4 7 2 4 - - 0.0
23/12:00am 8.6 7.8 8.0 96 0.3 E 2 7 1 4 - - 0.0
 
Date/Time
EST
Temp
°C
App
Temp
°C
Dew
Point
Rel
Hum
%
Delta-T
°C
Wind Press
QNH
hPa
Press
MSL
hPa
Rain
since 9 am
mm
Dir
 
Spd
km/h
Gust
km/h
Spd
kts
Gust
kts
22/11:30pm 8.6 - - - - S 2 7 1 4 - - 0.0
22/11:00pm 8.1 - - - - CALM 0 0 0 0 - - 0.0
22/10:30pm 8.7 - - - - ENE 7 9 4 5 - - 0.0
22/10:00pm 8.3 - - - - CALM 0 0 0 0 - - 0.0
22/09:30pm 8.8 - - - - WNW 7 9 4 5 - - 0.0
22/09:00pm 9.0 8.2 8.1 94 0.4 WNW 2 9 1 5 - - 0.0
22/08:30pm 10.2 - - - - ESE 6 9 3 5 - - 0.0
22/08:00pm 10.4 - - - - ESE 9 11 5 6 - - 0.0
22/07:30pm 10.2 - - - - CALM 0 0 0 0 - - 0.0
22/07:00pm 10.7 - - - - NW 7 11 4 6 - - 0.0
22/06:30pm 11.4 - - - - NNW 13 13 7 7 - - 0.0
22/06:00pm 13.3 10.2 10.3 82 1.6 NW 17 20 9 11 - - 0.0
22/05:30pm 13.7 - - - - NW 17 20 9 11 - - 0.0
22/05:00pm 13.5 - - - - NW 17 20 9 11 - - 0.0
22/04:30pm 14.3 - - - - NW 19 24 10 13 - - 0.0
22/04:00pm 14.6 - - - - NW 19 24 10 13 - - 0.0
22/03:30pm 14.8 - - - - NW 17 24 9 13 - - 0.0
22/03:00pm 15.3 12.6 10.5 73 2.5 NW 15 20 8 11 - - 0.0
22/02:30pm 15.5 - - - - NW 17 20 9 11 - - 0.0
22/02:00pm 16.0 - - - - NW 15 22 8 12 - - 0.0
22/01:30pm 16.0 12.6 10.7 71 2.8 NW 19 24 10 13 - - 0.0
22/01:00pm 15.3 - - - - NW 26 30 14 16 - - 0.0
22/12:30pm 15.4 11.3 10.0 70 2.8 NW 22 30 12 16 - - 0.0
22/12:00pm 16.0 11.8 9.7 66 3.3 NW 22 30 12 16 - - 0.0
22/11:30am 15.2 - - - - NW 19 24 10 13 - - 0.0
22/11:00am 12.7 - - - - W 7 9 4 5 - - 0.0
22/10:30am 11.4 - - - - ESE 2 7 1 4 - - 0.0
22/10:00am 9.6 - - - - CALM 0 0 0 0 - - 0.0
22/09:30am 8.9 - - - - CALM 0 2 0 1 - - 0.0
22/09:00am 7.5 6.8 6.8 95 0.3 CALM 0 0 0 0 - - 0.0
22/08:30am 6.4 - - - - SSW 7 9 4 5 - - 0.0
22/08:00am 5.6 3.2 5.2 97 0.2 SSE 7 9 4 5 - - 0.0
22/07:30am 4.5 - - - - S 2 6 1 3 - - 0.0
22/07:00am 5.2 - - - - SSW 4 9 2 5 - - 0.0
22/06:30am 5.3 - - - - CALM 0 0 0 0 - - 0.0
22/06:00am 5.7 4.5 4.8 94 0.4 CALM 0 0 0 0 - - 0.0
22/05:30am 6.5 - - - - ENE 6 7 3 4 - - 0.0
22/05:00am 6.3 - - - - S 7 11 4 6 - - 0.0
22/04:30am 7.5 - - - - SSW 6 7 3 4 - - 0.0
22/04:00am 9.6 - - - - W 4 6 2 3 - - 0.0
22/03:30am 10.6 - - - - N 13 20 7 11 - - 0.0
22/03:00am 11.1 7.8 9.4 89 0.9 N 17 20 9 11 - - 0.0
22/02:30am 11.3 - - - - N 19 24 10 13 - - 0.0
22/02:00am 10.8 8.8 10.0 95 0.4 NNW 11 24 6 13 - - 0.0
22/01:30am 6.6 5.6 5.6 93 0.4 CALM 0 0 0 0 - - 0.0
22/01:00am 7.1 5.0 5.7 91 0.6 WSW 6 9 3 5 - - 0.0
22/12:30am 8.7 6.4 7.6 93 0.5 WSW 9 11 5 6 - - 0.0
22/12:00am 9.8 7.8 8.7 93 0.5 N 9 13 5 7 - - 0.0

Other Formats:

Comma delimited format used in spreadsheet applications
http://www.bom.gov.au/fwo/IDT60801/IDT60801.95969.axf

JavaScript Object Notation format (JSON) in row-major order
http://www.bom.gov.au/fwo/IDT60801/IDT60801.95969.json